createdAt,value
2023-09-20T00:00:47.120Z,1.92
2023-09-20T00:03:39.700Z,2.30
2023-09-20T00:06:33.174Z,1.60
2023-09-20T00:09:26.954Z,4.05
2023-09-20T00:12:21.717Z,2.80
2023-09-20T00:15:14.946Z,1.60
2023-09-20T00:18:08.507Z,1.85
2023-09-20T00:21:02.678Z,2.70
2023-09-20T00:23:56.593Z,1.42
2023-09-20T00:26:49.931Z,1.27
2023-09-20T00:29:44.177Z,1.77
2023-09-20T00:32:37.696Z,2.35
2023-09-20T00:35:31.441Z,1.48
2023-09-20T00:38:25.818Z,1.80
2023-09-20T00:41:19.995Z,1.33
2023-09-20T00:44:12.724Z,2.17
2023-09-20T00:47:08.939Z,1.70
2023-09-20T00:50:01.961Z,2.63
2023-09-20T00:52:57.074Z,1.33
2023-09-20T00:55:51.107Z,1.98
2023-09-20T00:58:45.107Z,1.83
2023-09-20T01:01:39.104Z,1.60
2023-09-20T01:04:34.811Z,1.85
2023-09-20T01:07:28.310Z,1.27
2023-09-20T01:10:23.978Z,2.13
2023-09-20T01:13:19.811Z,2.03
2023-09-20T01:16:15.476Z,2.00
2023-09-20T01:19:08.858Z,1.33
2023-09-20T01:22:03.826Z,1.95
2023-09-20T01:24:57.263Z,2.10
2023-09-20T01:27:51.331Z,1.50
2023-09-20T01:30:51.124Z,2.22
2023-09-20T01:33:44.261Z,1.25
2023-09-20T01:36:38.147Z,1.92
2023-09-20T01:39:34.596Z,1.95
2023-09-20T01:42:28.000Z,1.40
2023-09-20T01:45:27.068Z,1.05
2023-09-20T01:48:20.094Z,1.98
2023-09-20T01:51:13.481Z,2.05
2023-09-20T01:54:07.517Z,1.80
2023-09-20T01:57:02.630Z,1.80
2023-09-20T01:59:58.398Z,1.55
2023-09-20T02:02:53.337Z,1.80
2023-09-20T02:05:48.677Z,1.95
2023-09-20T02:08:42.700Z,1.63
2023-09-20T02:11:36.344Z,1.35
2023-09-20T02:14:31.937Z,2.03
2023-09-20T02:17:24.903Z,1.05
2023-09-20T02:20:21.049Z,1.30
2023-09-20T02:23:15.281Z,2.30
2023-09-20T02:26:10.026Z,1.52
2023-09-20T02:29:03.586Z,1.20
2023-09-20T02:32:01.394Z,1.70
2023-09-20T02:34:55.907Z,1.05
2023-09-20T02:37:50.565Z,1.65
2023-09-20T02:40:47.537Z,3.03
2023-09-20T02:43:41.170Z,1.83
2023-09-20T02:46:34.295Z,1.10
2023-09-20T02:49:28.533Z,2.28
2023-09-20T02:52:22.739Z,2.05
2023-09-20T02:55:18.468Z,0.95
2023-09-20T02:58:12.023Z,2.45
2023-09-20T03:01:05.454Z,2.20
2023-09-20T03:03:59.291Z,1.38
2023-09-20T03:06:54.477Z,1.50
2023-09-20T03:09:47.962Z,1.30
2023-09-20T03:12:43.225Z,1.20
2023-09-20T03:15:37.345Z,1.45
2023-09-20T03:18:34.233Z,2.30
2023-09-20T03:21:26.814Z,1.13
2023-09-20T03:24:21.373Z,0.90
2023-09-20T03:27:16.370Z,1.40
2023-09-20T03:30:12.317Z,2.10
2023-09-20T03:33:06.319Z,1.77
2023-09-20T03:36:03.293Z,2.00
2023-09-20T03:38:58.850Z,1.45
2023-09-20T03:41:53.595Z,1.23
2023-09-20T03:44:47.880Z,1.35
2023-09-20T03:47:41.241Z,1.75
2023-09-20T03:50:34.861Z,1.15
2023-09-20T03:53:28.038Z,1.60
2023-09-20T03:56:21.167Z,2.63
2023-09-20T03:59:18.805Z,0.90
2023-09-20T04:02:15.117Z,1.15
2023-09-20T04:05:12.036Z,1.00
2023-09-20T04:08:07.240Z,1.33
2023-09-20T04:11:00.458Z,2.08
2023-09-20T04:13:54.181Z,1.45
2023-09-20T04:16:48.825Z,1.08
2023-09-20T04:19:43.204Z,1.70
2023-09-20T04:22:38.370Z,1.50
2023-09-20T04:25:30.913Z,1.75
2023-09-20T04:28:23.936Z,1.17
2023-09-20T04:31:17.135Z,1.80
2023-09-20T04:34:12.653Z,2.35
2023-09-20T04:37:06.914Z,1.15
2023-09-20T04:40:00.164Z,1.45
2023-09-20T04:42:53.093Z,1.60
2023-09-20T04:45:46.071Z,1.30
2023-09-20T04:48:41.168Z,1.73
2023-09-20T04:51:35.856Z,1.65
2023-09-20T04:54:28.996Z,1.80
2023-09-20T04:57:22.314Z,3.13
2023-09-20T05:00:20.782Z,1.20
2023-09-20T05:03:16.219Z,1.98
2023-09-20T05:06:10.477Z,1.25
2023-09-20T05:09:05.499Z,1.15
2023-09-20T05:11:59.003Z,2.47
2023-09-20T05:14:52.139Z,1.77
2023-09-20T05:17:45.293Z,2.03
2023-09-20T05:20:38.411Z,1.48
2023-09-20T05:23:32.137Z,1.00
2023-09-20T05:26:26.603Z,1.30
2023-09-20T05:29:20.262Z,1.38
2023-09-20T05:32:13.059Z,1.20
2023-09-20T05:35:07.853Z,1.70
2023-09-20T05:38:01.338Z,2.60
2023-09-20T05:40:54.424Z,2.30
2023-09-20T05:43:48.882Z,4.38
2023-09-20T05:46:42.324Z,3.63
2023-09-20T05:49:35.258Z,1.95
2023-09-20T05:52:28.223Z,2.33
2023-09-20T05:55:24.058Z,2.97
2023-09-20T05:58:17.013Z,2.03
2023-09-20T06:01:11.544Z,2.33
2023-09-20T06:04:05.862Z,2.75
2023-09-20T06:07:05.849Z,3.67
2023-09-20T06:09:59.750Z,4.05
2023-09-20T06:12:53.350Z,2.90
2023-09-20T06:15:46.199Z,3.03
2023-09-20T06:18:50.762Z,3.85
2023-09-20T06:21:52.175Z,4.65
2023-09-20T06:24:47.240Z,2.45
2023-09-20T06:27:40.826Z,2.90
2023-09-20T06:30:34.783Z,3.47
2023-09-20T06:33:28.268Z,3.35
2023-09-20T06:36:23.404Z,3.20
2023-09-20T06:39:19.663Z,5.03
2023-09-20T06:42:13.379Z,4.32
2023-09-20T06:45:09.674Z,1.80
2023-09-20T06:48:04.552Z,2.97
2023-09-20T06:50:58.873Z,5.00
2023-09-20T06:53:53.545Z,2.47
2023-09-20T06:56:48.283Z,3.35
2023-09-20T06:59:42.898Z,2.92
2023-09-20T07:02:36.282Z,2.38
2023-09-20T07:05:30.566Z,3.53
2023-09-20T07:08:24.460Z,5.15
2023-09-20T07:11:20.323Z,2.85
2023-09-20T07:14:15.246Z,4.05
2023-09-20T07:17:09.060Z,3.97
2023-09-20T07:20:04.944Z,2.67
2023-09-20T07:23:00.110Z,2.47
2023-09-20T07:25:53.305Z,3.10
2023-09-20T07:28:47.772Z,2.33
2023-09-20T07:31:43.112Z,2.42
2023-09-20T07:34:36.969Z,4.93
2023-09-20T07:37:30.306Z,3.30
2023-09-20T07:40:27.307Z,3.60
2023-09-20T07:43:29.251Z,3.13
2023-09-20T07:46:25.279Z,3.20
2023-09-20T07:49:19.031Z,3.35
2023-09-20T07:52:14.249Z,3.17
2023-09-20T07:55:08.833Z,2.38
2023-09-20T07:58:02.889Z,4.20
2023-09-20T08:00:57.404Z,4.18
2023-09-20T08:03:55.869Z,3.42
2023-09-20T08:06:50.223Z,3.58
2023-09-20T08:09:44.750Z,3.35
2023-09-20T08:12:38.242Z,3.78
2023-09-20T08:15:33.345Z,2.90
2023-09-20T08:18:44.438Z,3.38
2023-09-20T08:21:41.120Z,4.43
2023-09-20T08:24:51.865Z,4.07
2023-09-20T08:28:02.372Z,4.68
2023-09-20T08:31:13.662Z,2.30
2023-09-20T08:34:24.946Z,2.65
2023-09-20T08:37:36.704Z,3.00
2023-09-20T08:40:48.050Z,4.10
2023-09-20T08:43:58.858Z,4.43
2023-09-20T08:47:11.173Z,3.13
2023-09-20T08:50:26.242Z,1.90
2023-09-20T08:53:39.725Z,3.42
2023-09-20T08:56:53.302Z,2.70
2023-09-20T08:59:55.253Z,1.77
2023-09-20T09:02:52.777Z,3.38
2023-09-20T09:05:46.368Z,2.17
2023-09-20T09:08:40.793Z,3.22
2023-09-20T09:11:35.057Z,3.30
2023-09-20T09:14:28.600Z,1.90
2023-09-20T09:17:21.783Z,3.28
2023-09-20T09:20:16.680Z,2.33
2023-09-20T09:23:10.263Z,3.05
2023-09-20T09:26:04.998Z,2.42
2023-09-20T09:28:58.329Z,2.30
2023-09-20T09:31:51.654Z,3.65
2023-09-20T09:34:47.097Z,3.83
2023-09-20T09:37:42.171Z,2.85
2023-09-20T09:40:52.733Z,2.85
2023-09-20T09:43:59.690Z,4.10
2023-09-20T09:46:55.081Z,2.53
2023-09-20T09:49:50.177Z,3.03
2023-09-20T09:52:45.448Z,3.55
2023-09-20T09:55:40.463Z,3.13
2023-09-20T09:58:34.297Z,2.25
2023-09-20T10:01:29.939Z,3.33
2023-09-20T10:04:25.558Z,3.00
2023-09-20T10:07:20.338Z,2.47
2023-09-20T10:10:14.825Z,3.55
2023-09-20T10:13:09.735Z,2.50
2023-09-20T10:16:11.902Z,3.13
2023-09-20T10:19:12.020Z,2.30
2023-09-20T10:22:10.421Z,3.90
2023-09-20T10:25:04.163Z,2.33
2023-09-20T10:27:57.483Z,2.85
2023-09-20T10:31:02.557Z,2.88
2023-09-20T10:33:56.857Z,2.35
2023-09-20T10:36:56.075Z,5.03
2023-09-20T10:39:49.646Z,2.85
2023-09-20T10:42:53.927Z,3.63
2023-09-20T10:45:52.724Z,4.93
2023-09-20T10:48:51.928Z,1.90
2023-09-20T10:51:50.105Z,2.50
2023-09-20T10:54:47.188Z,3.88
2023-09-20T10:57:43.952Z,2.58
2023-09-20T11:00:37.654Z,2.97
2023-09-20T11:03:30.871Z,3.08
2023-09-20T11:06:25.140Z,3.20
2023-09-20T11:09:18.622Z,1.92
2023-09-20T11:12:13.102Z,3.08
2023-09-20T11:15:08.276Z,3.35
2023-09-20T11:18:01.586Z,3.05
2023-09-20T11:20:55.173Z,4.50
2023-09-20T11:23:49.875Z,2.13
2023-09-20T11:26:46.478Z,2.58
2023-09-20T11:29:44.692Z,3.40
2023-09-20T11:32:42.286Z,2.80
2023-09-20T11:35:38.474Z,2.97
2023-09-20T11:38:32.038Z,2.80
2023-09-20T11:41:25.970Z,2.20
2023-09-20T11:44:21.593Z,1.98
2023-09-20T11:47:16.199Z,2.95
2023-09-20T11:50:14.979Z,2.60
2023-09-20T11:53:08.581Z,1.92
2023-09-20T11:56:04.487Z,2.10
2023-09-20T11:58:59.312Z,3.03
2023-09-20T12:01:52.239Z,4.30
2023-09-20T12:04:47.414Z,2.15
2023-09-20T12:07:40.695Z,1.83
2023-09-20T12:10:33.364Z,2.13
2023-09-20T12:13:27.354Z,2.75
2023-09-20T12:16:24.742Z,2.88
2023-09-20T12:19:19.203Z,2.28
2023-09-20T12:22:14.940Z,2.22
2023-09-20T12:25:09.763Z,2.75
2023-09-20T12:28:04.563Z,2.97
2023-09-20T12:30:59.508Z,1.85
2023-09-20T12:33:53.604Z,3.38
2023-09-20T12:36:47.744Z,2.75
2023-09-20T12:39:43.491Z,3.58
2023-09-20T12:42:36.578Z,2.40
2023-09-20T12:45:29.974Z,1.83
2023-09-20T12:48:23.786Z,4.30
2023-09-20T12:51:17.368Z,2.83
2023-09-20T12:54:11.308Z,2.00
2023-09-20T12:57:06.132Z,2.30
2023-09-20T13:00:01.464Z,1.42
2023-09-20T13:02:56.506Z,3.17
2023-09-20T13:05:50.515Z,2.13
2023-09-20T13:08:45.336Z,2.95
2023-09-20T13:11:40.887Z,3.20
2023-09-20T13:14:36.104Z,2.65
2023-09-20T13:17:30.300Z,2.40
2023-09-20T13:20:25.459Z,2.78
2023-09-20T13:23:18.688Z,1.85
2023-09-20T13:26:12.769Z,3.05
2023-09-20T13:29:05.763Z,2.10
2023-09-20T13:32:00.062Z,2.25
2023-09-20T13:34:54.346Z,2.67
2023-09-20T13:37:48.229Z,3.55
2023-09-20T13:40:43.926Z,2.78
2023-09-20T13:43:37.317Z,2.38
2023-09-20T13:46:31.038Z,2.40
2023-09-20T13:49:26.060Z,2.10
2023-09-20T13:52:19.908Z,1.90
2023-09-20T13:55:14.947Z,2.60
2023-09-20T13:58:09.386Z,1.83
2023-09-20T14:01:06.752Z,3.03
2023-09-20T14:04:00.214Z,2.47
2023-09-20T14:06:54.677Z,2.42
2023-09-20T14:09:47.520Z,2.58
2023-09-20T14:12:42.163Z,3.10
2023-09-20T14:15:35.857Z,1.95
2023-09-20T14:18:29.098Z,2.63
2023-09-20T14:21:22.884Z,2.33
2023-09-20T14:24:17.866Z,1.95
2023-09-20T14:27:10.671Z,1.77
2023-09-20T14:30:05.341Z,1.95
2023-09-20T14:32:58.893Z,1.88
2023-09-20T14:35:58.372Z,4.20
2023-09-20T14:38:51.677Z,1.92
2023-09-20T14:41:47.190Z,2.20
2023-09-20T14:44:41.109Z,2.92
2023-09-20T14:47:34.640Z,1.58
2023-09-20T14:50:28.220Z,2.67
2023-09-20T14:53:21.767Z,1.67
2023-09-20T14:56:15.704Z,2.28
2023-09-20T14:59:10.598Z,1.77
2023-09-20T15:02:05.724Z,2.22
2023-09-20T15:04:58.447Z,3.33
2023-09-20T15:07:54.958Z,1.98
2023-09-20T15:10:52.279Z,2.03
2023-09-20T15:13:46.712Z,2.00
2023-09-20T15:16:41.710Z,1.27
2023-09-20T15:19:34.885Z,1.65
2023-09-20T15:22:31.037Z,2.33
2023-09-20T15:25:26.311Z,2.83
2023-09-20T15:28:19.454Z,4.75
2023-09-20T15:31:13.159Z,1.73
2023-09-20T15:34:08.202Z,2.10
2023-09-20T15:37:01.739Z,2.13
2023-09-20T15:39:55.010Z,3.45
2023-09-20T15:42:49.178Z,2.70
2023-09-20T15:45:43.401Z,2.47
2023-09-20T15:48:37.073Z,2.30
2023-09-20T15:51:31.923Z,1.63
2023-09-20T15:54:24.981Z,2.92
2023-09-20T15:57:18.688Z,3.72
2023-09-20T16:00:16.217Z,2.03
2023-09-20T16:03:17.072Z,1.83
2023-09-20T16:06:11.764Z,1.98
2023-09-20T16:09:06.159Z,2.17
2023-09-20T16:12:00.970Z,1.42
2023-09-20T16:14:54.980Z,2.33
2023-09-20T16:17:53.419Z,2.28
2023-09-20T16:20:46.699Z,1.75
2023-09-20T16:23:41.482Z,1.65
2023-09-20T16:26:36.386Z,3.20
2023-09-20T16:29:29.549Z,1.30
2023-09-20T16:32:22.727Z,2.03
2023-09-20T16:35:16.775Z,2.05
2023-09-20T16:38:11.983Z,1.42
2023-09-20T16:41:05.173Z,2.58
2023-09-20T16:43:59.917Z,2.20
2023-09-20T16:46:52.849Z,1.17
2023-09-20T16:49:46.340Z,1.30
2023-09-20T16:52:39.911Z,2.03
2023-09-20T16:55:33.015Z,2.78
2023-09-20T16:58:25.709Z,1.30
2023-09-20T17:01:21.402Z,1.63
2023-09-20T17:04:14.849Z,2.38
2023-09-20T17:07:07.613Z,1.92
2023-09-20T17:10:00.763Z,2.00
2023-09-20T17:12:53.823Z,1.55
2023-09-20T17:15:47.232Z,1.83
2023-09-20T17:18:42.221Z,1.55
2023-09-20T17:21:35.906Z,1.58
2023-09-20T17:24:28.930Z,2.88
2023-09-20T17:27:29.457Z,1.83
2023-09-20T17:30:24.097Z,3.28
2023-09-20T17:33:20.182Z,1.65
2023-09-20T17:36:17.019Z,2.83
2023-09-20T17:39:10.150Z,3.63
2023-09-20T17:42:05.810Z,2.10
2023-09-20T17:44:59.357Z,1.85
2023-09-20T17:47:52.703Z,1.65
2023-09-20T17:50:45.807Z,2.28
2023-09-20T17:53:41.961Z,1.17
2023-09-20T17:56:37.685Z,1.52
2023-09-20T17:59:30.614Z,1.85
2023-09-20T18:02:29.756Z,2.15
2023-09-20T18:05:23.187Z,1.25
2023-09-20T18:08:17.446Z,1.60
2023-09-20T18:11:12.440Z,1.10
2023-09-20T18:14:06.476Z,2.50
2023-09-20T18:16:59.756Z,1.77
2023-09-20T18:19:55.035Z,1.73
2023-09-20T18:22:47.780Z,1.45
2023-09-20T18:25:42.374Z,2.30
2023-09-20T18:28:39.940Z,1.95
2023-09-20T18:31:33.739Z,2.20
2023-09-20T18:34:29.375Z,2.45
2023-09-20T18:37:23.571Z,2.17
2023-09-20T18:40:17.407Z,2.40
2023-09-20T18:43:14.089Z,3.55
2023-09-20T18:46:09.560Z,2.60
2023-09-20T18:49:03.017Z,1.30
2023-09-20T18:51:56.648Z,2.90
2023-09-20T18:54:51.922Z,2.55
2023-09-20T18:57:51.229Z,3.53
2023-09-20T19:00:46.259Z,3.50
2023-09-20T19:03:41.611Z,3.75
2023-09-20T19:06:37.839Z,1.98
2023-09-20T19:09:30.701Z,1.80
2023-09-20T19:12:27.259Z,3.33
2023-09-20T19:15:21.154Z,2.78
2023-09-20T19:18:15.357Z,2.75
2023-09-20T19:21:11.011Z,2.47
2023-09-20T19:24:10.252Z,2.33
2023-09-20T19:27:04.457Z,2.47
2023-09-20T19:30:03.230Z,4.03
2023-09-20T19:32:57.353Z,3.13
2023-09-20T19:35:52.008Z,4.47
2023-09-20T19:38:46.558Z,2.83
2023-09-20T19:41:40.854Z,4.15
2023-09-20T19:44:33.769Z,4.82
2023-09-20T19:47:27.135Z,4.38
2023-09-20T19:50:23.103Z,4.60
2023-09-20T19:53:16.648Z,3.72
2023-09-20T19:56:17.391Z,4.10
2023-09-20T19:59:12.632Z,3.83
2023-09-20T20:02:05.703Z,5.53
2023-09-20T20:04:59.170Z,4.47
2023-09-20T20:07:52.685Z,4.68
2023-09-20T20:10:46.603Z,3.88
2023-09-20T20:13:41.584Z,4.72
2023-09-20T20:16:38.712Z,4.25
2023-09-20T20:19:32.225Z,6.05
2023-09-20T20:22:26.435Z,5.53
2023-09-20T20:25:22.880Z,4.40
2023-09-20T20:28:17.369Z,3.92
2023-09-20T20:31:12.686Z,4.13
2023-09-20T20:34:06.348Z,6.10
2023-09-20T20:37:00.039Z,4.00
2023-09-20T20:39:52.683Z,5.30
2023-09-20T20:42:45.998Z,4.50
2023-09-20T20:45:39.995Z,5.65
2023-09-20T20:48:35.434Z,3.75
2023-09-20T20:51:31.475Z,3.50
2023-09-20T20:54:25.753Z,4.60
2023-09-20T20:57:19.949Z,3.90
2023-09-20T21:00:22.544Z,4.75
2023-09-20T21:03:17.060Z,3.50
2023-09-20T21:06:13.847Z,3.67
2023-09-20T21:09:07.721Z,4.65
2023-09-20T21:12:00.750Z,4.07
2023-09-20T21:14:55.101Z,5.38
2023-09-20T21:17:48.168Z,3.83
2023-09-20T21:20:42.782Z,4.00
2023-09-20T21:23:38.524Z,5.20
2023-09-20T21:26:31.914Z,4.78
2023-09-20T21:29:25.862Z,3.67
2023-09-20T21:32:18.948Z,6.43
2023-09-20T21:35:12.149Z,4.82
2023-09-20T21:38:08.836Z,5.72
2023-09-20T21:41:03.440Z,4.95
2023-09-20T21:43:56.651Z,4.13
2023-09-20T21:46:50.307Z,4.80
2023-09-20T21:49:44.819Z,6.32
2023-09-20T21:52:38.016Z,5.07
2023-09-20T21:55:31.604Z,6.03
2023-09-20T21:58:26.536Z,5.18
2023-09-20T22:01:20.025Z,5.43
2023-09-20T22:04:13.296Z,6.00
2023-09-20T22:07:08.757Z,5.80
2023-09-20T22:10:02.141Z,6.18
2023-09-20T22:12:56.466Z,6.00
2023-09-20T22:15:52.470Z,4.78
2023-09-20T22:18:46.919Z,6.25
2023-09-20T22:21:41.164Z,5.93
2023-09-20T22:24:34.506Z,7.05
2023-09-20T22:27:28.341Z,5.03
2023-09-20T22:30:22.455Z,7.03
2023-09-20T22:33:17.875Z,6.30
2023-09-20T22:36:15.561Z,7.45
2023-09-20T22:39:09.954Z,5.00
2023-09-20T22:42:03.004Z,6.57
2023-09-20T22:44:56.502Z,5.28
2023-09-20T22:47:50.870Z,6.03
2023-09-20T22:50:48.398Z,4.70
2023-09-20T22:53:44.745Z,5.97
2023-09-20T22:56:44.574Z,5.38
2023-09-20T22:59:38.251Z,6.55
2023-09-20T23:02:32.094Z,5.80
2023-09-20T23:05:26.476Z,5.25
2023-09-20T23:08:23.606Z,5.13
2023-09-20T23:11:23.428Z,6.88
2023-09-20T23:14:18.885Z,5.45
2023-09-20T23:17:16.265Z,6.72
2023-09-20T23:20:31.657Z,7.22
2023-09-20T23:23:27.403Z,5.22
2023-09-20T23:26:20.916Z,5.35
2023-09-20T23:29:14.038Z,5.20
2023-09-20T23:32:09.425Z,5.03
2023-09-20T23:35:03.254Z,4.25
2023-09-20T23:37:56.362Z,6.18
2023-09-20T23:40:53.171Z,6.63
2023-09-20T23:43:46.564Z,6.05
2023-09-20T23:46:42.103Z,5.70
2023-09-20T23:49:35.178Z,5.30
2023-09-20T23:52:30.720Z,6.07
2023-09-20T23:55:24.831Z,5.88
2023-09-20T23:58:19.428Z,5.13
